sensor_id;sensor_type;location;lat;lon;timestamp;temperature;humidity
10278;DHT22;5184;51.376;7.148;2022-12-19T00:01:36;1.00;99.90
10278;DHT22;5184;51.376;7.148;2022-12-19T00:04:04;1.00;74.00
10278;DHT22;5184;51.376;7.148;2022-12-19T00:06:31;1.00;1.00
10278;DHT22;5184;51.376;7.148;2022-12-19T00:08:58;1.00;1.00
10278;DHT22;5184;51.376;7.148;2022-12-19T00:11:24;1.00;31.20
10278;DHT22;5184;51.376;7.148;2022-12-19T00:13:50;1.00;4.20
10278;DHT22;5184;51.376;7.148;2022-12-19T00:16:19;1.00;99.20
10278;DHT22;5184;51.376;7.148;2022-12-19T00:18:45;1.00;99.90
10278;DHT22;5184;51.376;7.148;2022-12-19T00:21:12;1.10;1.00
10278;DHT22;5184;51.376;7.148;2022-12-19T00:23:38;1.00;12.10
10278;DHT22;5184;51.376;7.148;2022-12-19T00:26:09;1.10;1.00
10278;DHT22;5184;51.376;7.148;2022-12-19T00:28:34;1.10;1.00
10278;DHT22;5184;51.376;7.148;2022-12-19T00:31:01;1.10;99.90
10278;DHT22;5184;51.376;7.148;2022-12-19T00:33:28;1.10;99.90
10278;DHT22;5184;51.376;7.148;2022-12-19T00:35:57;1.10;1.00
10278;DHT22;5184;51.376;7.148;2022-12-19T00:38:23;1.10;1.00
10278;DHT22;5184;51.376;7.148;2022-12-19T00:40:49;1.20;23.40
10278;DHT22;5184;51.376;7.148;2022-12-19T00:43:17;1.20;1.00
10278;DHT22;5184;51.376;7.148;2022-12-19T00:45:44;1.20;1.00
10278;DHT22;5184;51.376;7.148;2022-12-19T00:48:13;1.30;1.00
10278;DHT22;5184;51.376;7.148;2022-12-19T00:50:40;1.20;1.00
10278;DHT22;5184;51.376;7.148;2022-12-19T00:53:06;1.30;1.00
10278;DHT22;5184;51.376;7.148;2022-12-19T00:55:36;1.30;99.90
10278;DHT22;5184;51.376;7.148;2022-12-19T00:58:00;1.30;99.90
10278;DHT22;5184;51.376;7.148;2022-12-19T01:00:27;1.30;99.90
10278;DHT22;5184;51.376;7.148;2022-12-19T01:02:54;1.30;99.90
10278;DHT22;5184;51.376;7.148;2022-12-19T01:05:20;1.30;99.90
10278;DHT22;5184;51.376;7.148;2022-12-19T01:07:47;1.40;1.00
10278;DHT22;5184;51.376;7.148;2022-12-19T01:10:14;1.60;1.00
10278;DHT22;5184;51.376;7.148;2022-12-19T01:12:42;1.50;1.00
10278;DHT22;5184;51.376;7.148;2022-12-19T01:15:13;1.50;1.00
10278;DHT22;5184;51.376;7.148;2022-12-19T01:17:39;1.50;1.00
10278;DHT22;5184;51.376;7.148;2022-12-19T01:20:06;1.50;1.00
10278;DHT22;5184;51.376;7.148;2022-12-19T01:22:33;1.60;1.00
10278;DHT22;5184;51.376;7.148;2022-12-19T01:25:00;1.60;1.00
10278;DHT22;5184;51.376;7.148;2022-12-19T01:27:26;1.60;1.00
10278;DHT22;5184;51.376;7.148;2022-12-19T01:29:53;1.60;1.00
10278;DHT22;5184;51.376;7.148;2022-12-19T01:32:20;1.60;1.00
10278;DHT22;5184;51.376;7.148;2022-12-19T01:34:48;1.60;1.00
10278;DHT22;5184;51.376;7.148;2022-12-19T01:37:16;1.60;1.00
10278;DHT22;5184;51.376;7.148;2022-12-19T01:39:43;1.60;1.00
10278;DHT22;5184;51.376;7.148;2022-12-19T01:42:18;1.60;1.00
10278;DHT22;5184;51.376;7.148;2022-12-19T01:47:21;1.60;89.60
10278;DHT22;5184;51.376;7.148;2022-12-19T01:49:49;1.70;99.90
10278;DHT22;5184;51.376;7.148;2022-12-19T01:52:15;1.60;99.90
10278;DHT22;5184;51.376;7.148;2022-12-19T01:54:42;1.70;99.90
10278;DHT22;5184;51.376;7.148;2022-12-19T01:57:10;1.70;99.90
10278;DHT22;5184;51.376;7.148;2022-12-19T01:59:38;1.60;99.90
10278;DHT22;5184;51.376;7.148;2022-12-19T02:02:14;1.60;99.90
10278;DHT22;5184;51.376;7.148;2022-12-19T02:04:40;1.60;99.90
10278;DHT22;5184;51.376;7.148;2022-12-19T02:07:10;1.60;99.90
10278;DHT22;5184;51.376;7.148;2022-12-19T02:09:37;1.70;99.90
10278;DHT22;5184;51.376;7.148;2022-12-19T02:12:05;1.70;99.90
10278;DHT22;5184;51.376;7.148;2022-12-19T02:14:32;1.70;99.90
10278;DHT22;5184;51.376;7.148;2022-12-19T02:17:07;1.80;99.90
10278;DHT22;5184;51.376;7.148;2022-12-19T02:19:46;1.80;99.90
10278;DHT22;5184;51.376;7.148;2022-12-19T02:22:24;1.80;99.90
10278;DHT22;5184;51.376;7.148;2022-12-19T02:25:03;1.90;99.90
10278;DHT22;5184;51.376;7.148;2022-12-19T02:27:40;1.90;99.90
10278;DHT22;5184;51.376;7.148;2022-12-19T02:30:06;1.90;99.90
10278;DHT22;5184;51.376;7.148;2022-12-19T02:32:39;2.00;99.90
10278;DHT22;5184;51.376;7.148;2022-12-19T02:35:13;2.00;99.90
10278;DHT22;5184;51.376;7.148;2022-12-19T02:37:36;2.10;99.90
10278;DHT22;5184;51.376;7.148;2022-12-19T02:40:21;2.10;99.90
10278;DHT22;5184;51.376;7.148;2022-12-19T02:42:48;2.20;99.90
10278;DHT22;5184;51.376;7.148;2022-12-19T02:45:15;2.30;99.90
10278;DHT22;5184;51.376;7.148;2022-12-19T02:47:42;2.40;99.90
10278;DHT22;5184;51.376;7.148;2022-12-19T02:50:08;2.30;99.90
10278;DHT22;5184;51.376;7.148;2022-12-19T02:52:42;2.40;50.90
10278;DHT22;5184;51.376;7.148;2022-12-19T02:55:08;2.40;51.40
10278;DHT22;5184;51.376;7.148;2022-12-19T02:57:46;2.50;29.00
10278;DHT22;5184;51.376;7.148;2022-12-19T03:00:10;2.60;18.60
10278;DHT22;5184;51.376;7.148;2022-12-19T03:02:47;2.60;1.00
10278;DHT22;5184;51.376;7.148;2022-12-19T03:05:13;2.70;1.00
10278;DHT22;5184;51.376;7.148;2022-12-19T03:07:44;2.80;1.00
10278;DHT22;5184;51.376;7.148;2022-12-19T03:10:17;2.90;1.00
10278;DHT22;5184;51.376;7.148;2022-12-19T03:12:48;2.90;99.90
10278;DHT22;5184;51.376;7.148;2022-12-19T03:15:12;3.00;99.90
10278;DHT22;5184;51.376;7.148;2022-12-19T03:17:39;3.10;1.00
10278;DHT22;5184;51.376;7.148;2022-12-19T03:20:22;3.20;1.00
10278;DHT22;5184;51.376;7.148;2022-12-19T03:22:35;3.30;1.00
10278;DHT22;5184;51.376;7.148;2022-12-19T03:25:02;5.40;1.00
10278;DHT22;5184;51.376;7.148;2022-12-19T03:27:29;3.40;1.00
10278;DHT22;5184;51.376;7.148;2022-12-19T03:30:06;3.40;5.80
10278;DHT22;5184;51.376;7.148;2022-12-19T03:32:32;3.40;1.00
10278;DHT22;5184;51.376;7.148;2022-12-19T03:35:00;3.40;1.00
10278;DHT22;5184;51.376;7.148;2022-12-19T03:37:27;3.40;99.90
10278;DHT22;5184;51.376;7.148;2022-12-19T03:39:54;3.40;99.90
10278;DHT22;5184;51.376;7.148;2022-12-19T03:42:20;3.40;99.90
10278;DHT22;5184;51.376;7.148;2022-12-19T03:44:51;3.40;1.00
10278;DHT22;5184;51.376;7.148;2022-12-19T03:47:23;3.40;71.00
10278;DHT22;5184;51.376;7.148;2022-12-19T03:49:47;3.40;99.90
10278;DHT22;5184;51.376;7.148;2022-12-19T03:52:21;3.50;99.90
10278;DHT22;5184;51.376;7.148;2022-12-19T03:54:53;3.50;99.90
10278;DHT22;5184;51.376;7.148;2022-12-19T03:57:22;3.50;99.90
10278;DHT22;5184;51.376;7.148;2022-12-19T03:59:48;3.40;99.90
10278;DHT22;5184;51.376;7.148;2022-12-19T04:02:16;3.40;1.00
10278;DHT22;5184;51.376;7.148;2022-12-19T04:04:44;3.50;1.00
10278;DHT22;5184;51.376;7.148;2022-12-19T04:07:10;3.40;1.00
10278;DHT22;5184;51.376;7.148;2022-12-19T04:09:36;3.50;1.00
10278;DHT22;5184;51.376;7.148;2022-12-19T04:12:04;3.50;1.00
10278;DHT22;5184;51.376;7.148;2022-12-19T04:14:32;3.50;1.00
10278;DHT22;5184;51.376;7.148;2022-12-19T04:17:07;3.60;1.00
10278;DHT22;5184;51.376;7.148;2022-12-19T04:19:45;3.60;1.00
10278;DHT22;5184;51.376;7.148;2022-12-19T04:22:12;3.60;1.00
10278;DHT22;5184;51.376;7.148;2022-12-19T04:24:37;3.60;1.00
10278;DHT22;5184;51.376;7.148;2022-12-19T04:27:04;3.70;35.90
10278;DHT22;5184;51.376;7.148;2022-12-19T04:29:31;3.80;70.30
10278;DHT22;5184;51.376;7.148;2022-12-19T04:31:57;3.70;99.90
10278;DHT22;5184;51.376;7.148;2022-12-19T04:34:24;3.70;99.90
10278;DHT22;5184;51.376;7.148;2022-12-19T04:36:52;3.70;99.90
10278;DHT22;5184;51.376;7.148;2022-12-19T04:39:18;3.70;99.90
10278;DHT22;5184;51.376;7.148;2022-12-19T04:41:45;3.80;99.90
10278;DHT22;5184;51.376;7.148;2022-12-19T04:44:11;3.80;99.90
10278;DHT22;5184;51.376;7.148;2022-12-19T04:46:38;3.80;99.90
10278;DHT22;5184;51.376;7.148;2022-12-19T04:49:05;3.90;99.90
10278;DHT22;5184;51.376;7.148;2022-12-19T04:51:32;2.90;99.90
10278;DHT22;5184;51.376;7.148;2022-12-19T04:53:59;3.90;99.90
10278;DHT22;5184;51.376;7.148;2022-12-19T04:56:26;3.90;99.90
10278;DHT22;5184;51.376;7.148;2022-12-19T04:58:55;3.90;99.90
10278;DHT22;5184;51.376;7.148;2022-12-19T05:01:22;3.90;99.90
10278;DHT22;5184;51.376;7.148;2022-12-19T05:03:49;3.90;99.90
10278;DHT22;5184;51.376;7.148;2022-12-19T05:06:16;3.90;99.90
10278;DHT22;5184;51.376;7.148;2022-12-19T05:08:43;3.90;99.90
10278;DHT22;5184;51.376;7.148;2022-12-19T05:11:11;4.00;99.90
10278;DHT22;5184;51.376;7.148;2022-12-19T05:13:36;3.90;99.90
10278;DHT22;5184;51.376;7.148;2022-12-19T05:16:05;4.00;99.90
10278;DHT22;5184;51.376;7.148;2022-12-19T05:18:31;4.00;99.90
10278;DHT22;5184;51.376;7.148;2022-12-19T05:20:57;4.00;99.90
10278;DHT22;5184;51.376;7.148;2022-12-19T05:23:24;4.00;99.90
10278;DHT22;5184;51.376;7.148;2022-12-19T05:25:50;4.00;99.90
10278;DHT22;5184;51.376;7.148;2022-12-19T05:28:18;4.00;99.90
10278;DHT22;5184;51.376;7.148;2022-12-19T05:30:45;4.10;99.90
10278;DHT22;5184;51.376;7.148;2022-12-19T05:33:12;4.20;99.90
10278;DHT22;5184;51.376;7.148;2022-12-19T05:35:39;4.20;99.90
10278;DHT22;5184;51.376;7.148;2022-12-19T05:38:06;4.20;99.90
10278;DHT22;5184;51.376;7.148;2022-12-19T05:40:32;4.20;99.90
10278;DHT22;5184;51.376;7.148;2022-12-19T05:42:59;4.30;99.90
10278;DHT22;5184;51.376;7.148;2022-12-19T05:45:25;4.30;99.90
10278;DHT22;5184;51.376;7.148;2022-12-19T05:47:53;4.30;99.90
10278;DHT22;5184;51.376;7.148;2022-12-19T05:50:20;4.30;99.90
10278;DHT22;5184;51.376;7.148;2022-12-19T05:52:47;4.30;99.90
10278;DHT22;5184;51.376;7.148;2022-12-19T05:55:13;4.40;99.90
10278;DHT22;5184;51.376;7.148;2022-12-19T05:57:40;4.40;99.90
10278;DHT22;5184;51.376;7.148;2022-12-19T06:00:08;4.40;99.90
10278;DHT22;5184;51.376;7.148;2022-12-19T06:02:35;4.40;99.90
10278;DHT22;5184;51.376;7.148;2022-12-19T06:05:01;4.40;99.90
10278;DHT22;5184;51.376;7.148;2022-12-19T06:07:28;4.50;99.90
10278;DHT22;5184;51.376;7.148;2022-12-19T06:09:55;4.50;99.90
10278;DHT22;5184;51.376;7.148;2022-12-19T06:12:22;4.60;99.90
10278;DHT22;5184;51.376;7.148;2022-12-19T06:14:49;4.60;99.90
10278;DHT22;5184;51.376;7.148;2022-12-19T06:17:16;4.60;99.90
10278;DHT22;5184;51.376;7.148;2022-12-19T06:19:43;4.60;99.90
10278;DHT22;5184;51.376;7.148;2022-12-19T06:22:09;4.60;99.90
10278;DHT22;5184;51.376;7.148;2022-12-19T06:24:37;4.70;99.90
10278;DHT22;5184;51.376;7.148;2022-12-19T06:27:03;4.80;99.90
10278;DHT22;5184;51.376;7.148;2022-12-19T06:29:30;4.70;99.90
10278;DHT22;5184;51.376;7.148;2022-12-19T06:31:57;4.70;99.90
10278;DHT22;5184;51.376;7.148;2022-12-19T06:34:24;4.90;99.90
10278;DHT22;5184;51.376;7.148;2022-12-19T06:36:51;4.90;99.90
10278;DHT22;5184;51.376;7.148;2022-12-19T06:39:19;4.90;99.90
10278;DHT22;5184;51.376;7.148;2022-12-19T06:41:45;5.00;99.90
10278;DHT22;5184;51.376;7.148;2022-12-19T06:44:18;5.00;99.90
10278;DHT22;5184;51.376;7.148;2022-12-19T06:46:44;5.00;99.90
10278;DHT22;5184;51.376;7.148;2022-12-19T06:49:11;4.90;99.90
10278;DHT22;5184;51.376;7.148;2022-12-19T06:51:37;4.90;99.90
10278;DHT22;5184;51.376;7.148;2022-12-19T06:54:05;4.90;99.90
10278;DHT22;5184;51.376;7.148;2022-12-19T06:56:34;4.90;99.90
10278;DHT22;5184;51.376;7.148;2022-12-19T06:59:00;4.90;99.90
10278;DHT22;5184;51.376;7.148;2022-12-19T07:04:13;5.00;99.90
10278;DHT22;5184;51.376;7.148;2022-12-19T07:06:40;5.00;99.90
10278;DHT22;5184;51.376;7.148;2022-12-19T07:09:07;4.90;99.90
10278;DHT22;5184;51.376;7.148;2022-12-19T07:11:33;5.00;99.90
10278;DHT22;5184;51.376;7.148;2022-12-19T07:14:00;5.00;99.90
10278;DHT22;5184;51.376;7.148;2022-12-19T07:16:26;5.10;99.90
10278;DHT22;5184;51.376;7.148;2022-12-19T07:18:53;5.10;99.90
10278;DHT22;5184;51.376;7.148;2022-12-19T07:21:20;5.20;99.90
10278;DHT22;5184;51.376;7.148;2022-12-19T07:23:47;5.20;99.90
10278;DHT22;5184;51.376;7.148;2022-12-19T07:26:14;5.20;99.90
10278;DHT22;5184;51.376;7.148;2022-12-19T07:28:40;5.30;99.90
10278;DHT22;5184;51.376;7.148;2022-12-19T07:31:07;5.30;99.90
10278;DHT22;5184;51.376;7.148;2022-12-19T07:33:33;5.40;99.90
10278;DHT22;5184;51.376;7.148;2022-12-19T07:36:01;5.40;99.90
10278;DHT22;5184;51.376;7.148;2022-12-19T07:38:28;5.50;99.90
10278;DHT22;5184;51.376;7.148;2022-12-19T07:40:55;5.40;99.90
10278;DHT22;5184;51.376;7.148;2022-12-19T07:43:21;5.50;99.90
10278;DHT22;5184;51.376;7.148;2022-12-19T07:45:52;5.50;99.90
10278;DHT22;5184;51.376;7.148;2022-12-19T07:48:15;5.50;99.90
10278;DHT22;5184;51.376;7.148;2022-12-19T07:50:43;5.50;99.90
10278;DHT22;5184;51.376;7.148;2022-12-19T07:53:10;5.60;99.90
10278;DHT22;5184;51.376;7.148;2022-12-19T07:55:37;5.60;99.90
10278;DHT22;5184;51.376;7.148;2022-12-19T07:58:04;5.50;99.90
10278;DHT22;5184;51.376;7.148;2022-12-19T08:00:30;5.60;99.90
10278;DHT22;5184;51.376;7.148;2022-12-19T08:02:58;5.60;99.90
10278;DHT22;5184;51.376;7.148;2022-12-19T08:05:25;5.60;99.90
10278;DHT22;5184;51.376;7.148;2022-12-19T08:07:51;5.60;99.90
10278;DHT22;5184;51.376;7.148;2022-12-19T08:10:18;5.60;99.90
10278;DHT22;5184;51.376;7.148;2022-12-19T08:12:45;5.70;99.90
10278;DHT22;5184;51.376;7.148;2022-12-19T08:15:11;5.70;99.90
10278;DHT22;5184;51.376;7.148;2022-12-19T08:17:39;5.70;99.90
10278;DHT22;5184;51.376;7.148;2022-12-19T08:20:07;5.70;99.90
10278;DHT22;5184;51.376;7.148;2022-12-19T08:22:34;5.70;99.90
10278;DHT22;5184;51.376;7.148;2022-12-19T08:25:01;5.80;99.90
10278;DHT22;5184;51.376;7.148;2022-12-19T08:27:28;5.70;99.90
10278;DHT22;5184;51.376;7.148;2022-12-19T08:29:54;5.70;99.90
10278;DHT22;5184;51.376;7.148;2022-12-19T08:32:21;5.80;99.90
10278;DHT22;5184;51.376;7.148;2022-12-19T08:34:48;5.80;99.90
10278;DHT22;5184;51.376;7.148;2022-12-19T08:37:14;5.80;99.90
10278;DHT22;5184;51.376;7.148;2022-12-19T08:39:41;5.90;99.90
10278;DHT22;5184;51.376;7.148;2022-12-19T08:42:08;5.90;99.90
10278;DHT22;5184;51.376;7.148;2022-12-19T08:44:34;5.90;99.90
10278;DHT22;5184;51.376;7.148;2022-12-19T08:47:01;5.90;99.90
10278;DHT22;5184;51.376;7.148;2022-12-19T08:49:28;6.00;99.90
10278;DHT22;5184;51.376;7.148;2022-12-19T08:51:55;6.00;99.90
10278;DHT22;5184;51.376;7.148;2022-12-19T08:54:22;6.00;99.90
10278;DHT22;5184;51.376;7.148;2022-12-19T08:56:48;6.00;99.90
10278;DHT22;5184;51.376;7.148;2022-12-19T08:59:16;6.10;99.90
10278;DHT22;5184;51.376;7.148;2022-12-19T09:01:43;6.10;99.90
10278;DHT22;5184;51.376;7.148;2022-12-19T09:04:10;6.10;99.90
10278;DHT22;5184;51.376;7.148;2022-12-19T09:06:38;6.10;99.90
10278;DHT22;5184;51.376;7.148;2022-12-19T09:09:05;6.20;99.90
10278;DHT22;5184;51.376;7.148;2022-12-19T09:11:32;6.20;99.90
10278;DHT22;5184;51.376;7.148;2022-12-19T09:13:59;6.20;99.90
10278;DHT22;5184;51.376;7.148;2022-12-19T09:16:26;6.30;99.90
10278;DHT22;5184;51.376;7.148;2022-12-19T09:18:54;6.40;99.90
10278;DHT22;5184;51.376;7.148;2022-12-19T09:21:21;6.40;99.90
10278;DHT22;5184;51.376;7.148;2022-12-19T09:23:49;6.50;99.90
10278;DHT22;5184;51.376;7.148;2022-12-19T09:26:15;6.50;99.90
10278;DHT22;5184;51.376;7.148;2022-12-19T09:28:41;6.60;99.90
10278;DHT22;5184;51.376;7.148;2022-12-19T09:31:12;6.60;99.90
10278;DHT22;5184;51.376;7.148;2022-12-19T09:33:37;6.60;99.90
10278;DHT22;5184;51.376;7.148;2022-12-19T09:36:04;6.70;99.90
10278;DHT22;5184;51.376;7.148;2022-12-19T09:38:32;6.70;28.70
10278;DHT22;5184;51.376;7.148;2022-12-19T09:41:05;5.90;1.00
10278;DHT22;5184;51.376;7.148;2022-12-19T09:43:32;6.80;1.00
10278;DHT22;5184;51.376;7.148;2022-12-19T09:46:10;6.90;1.00
10278;DHT22;5184;51.376;7.148;2022-12-19T09:48:36;6.90;9.50
10278;DHT22;5184;51.376;7.148;2022-12-19T09:51:04;7.00;2.20
10278;DHT22;5184;51.376;7.148;2022-12-19T09:53:35;7.00;6.40
10278;DHT22;5184;51.376;7.148;2022-12-19T09:55:59;9.40;1.00
10278;DHT22;5184;51.376;7.148;2022-12-19T09:58:30;7.20;1.00
10278;DHT22;5184;51.376;7.148;2022-12-19T10:00:57;7.20;1.00
10278;DHT22;5184;51.376;7.148;2022-12-19T10:03:24;7.20;1.00
10278;DHT22;5184;51.376;7.148;2022-12-19T10:05:52;7.20;1.00
10278;DHT22;5184;51.376;7.148;2022-12-19T10:08:26;7.20;1.00
10278;DHT22;5184;51.376;7.148;2022-12-19T10:11:14;7.20;1.00
10278;DHT22;5184;51.376;7.148;2022-12-19T10:13:50;7.20;1.00
10278;DHT22;5184;51.376;7.148;2022-12-19T10:16:20;7.30;99.90
10278;DHT22;5184;51.376;7.148;2022-12-19T10:18:50;7.30;99.90
10278;DHT22;5184;51.376;7.148;2022-12-19T10:21:20;7.30;99.90
10278;DHT22;5184;51.376;7.148;2022-12-19T10:23:54;7.30;99.90
10278;DHT22;5184;51.376;7.148;2022-12-19T10:26:19;7.40;99.90
10278;DHT22;5184;51.376;7.148;2022-12-19T10:29:02;7.40;99.90
10278;DHT22;5184;51.376;7.148;2022-12-19T10:31:47;7.40;99.90
10278;DHT22;5184;51.376;7.148;2022-12-19T10:34:18;7.30;1.00
10278;DHT22;5184;51.376;7.148;2022-12-19T10:36:45;7.30;1.00
10278;DHT22;5184;51.376;7.148;2022-12-19T10:39:15;7.40;1.00
10278;DHT22;5184;51.376;7.148;2022-12-19T10:41:39;7.40;1.00
10278;DHT22;5184;51.376;7.148;2022-12-19T10:44:07;7.40;1.00
10278;DHT22;5184;51.376;7.148;2022-12-19T10:46:36;7.40;1.00
10278;DHT22;5184;51.376;7.148;2022-12-19T10:49:17;7.50;99.90
10278;DHT22;5184;51.376;7.148;2022-12-19T10:54:39;7.50;1.00
10278;DHT22;5184;51.376;7.148;2022-12-19T10:57:17;7.60;1.00
10278;DHT22;5184;51.376;7.148;2022-12-19T10:59:50;7.60;1.00
10278;DHT22;5184;51.376;7.148;2022-12-19T11:02:11;7.70;47.90
10278;DHT22;5184;51.376;7.148;2022-12-19T11:04:36;7.70;46.00
10278;DHT22;5184;51.376;7.148;2022-12-19T11:07:14;7.70;1.00
10278;DHT22;5184;51.376;7.148;2022-12-19T11:09:36;7.70;19.90
10278;DHT22;5184;51.376;7.148;2022-12-19T11:12:11;7.70;99.90
10278;DHT22;5184;51.376;7.148;2022-12-19T11:14:38;7.70;99.90
10278;DHT22;5184;51.376;7.148;2022-12-19T11:17:03;7.70;1.00
10278;DHT22;5184;51.376;7.148;2022-12-19T11:19:34;7.70;2.90
10278;DHT22;5184;51.376;7.148;2022-12-19T11:22:13;7.70;18.50
10278;DHT22;5184;51.376;7.148;2022-12-19T11:24:38;7.70;1.00
10278;DHT22;5184;51.376;7.148;2022-12-19T11:27:03;7.70;1.00
10278;DHT22;5184;51.376;7.148;2022-12-19T11:29:40;7.70;1.00
10278;DHT22;5184;51.376;7.148;2022-12-19T11:32:03;7.70;99.90
10278;DHT22;5184;51.376;7.148;2022-12-19T11:34:31;7.70;99.90
10278;DHT22;5184;51.376;7.148;2022-12-19T11:37:16;7.70;99.90
10278;DHT22;5184;51.376;7.148;2022-12-19T11:39:45;7.80;1.00
10278;DHT22;5184;51.376;7.148;2022-12-19T11:42:20;7.80;1.00
10278;DHT22;5184;51.376;7.148;2022-12-19T11:44:47;7.80;1.00
10278;DHT22;5184;51.376;7.148;2022-12-19T11:47:52;7.90;1.00
10278;DHT22;5184;51.376;7.148;2022-12-19T11:50:03;7.90;16.20
10278;DHT22;5184;51.376;7.148;2022-12-19T11:52:39;7.90;99.90
10278;DHT22;5184;51.376;7.148;2022-12-19T11:55:03;8.00;99.90
10278;DHT22;5184;51.376;7.148;2022-12-19T11:57:29;8.00;99.90
10278;DHT22;5184;51.376;7.148;2022-12-19T11:59:55;8.10;1.00
10278;DHT22;5184;51.376;7.148;2022-12-19T12:02:50;8.10;1.00
10278;DHT22;5184;51.376;7.148;2022-12-19T12:05:35;8.10;1.00
10278;DHT22;5184;51.376;7.148;2022-12-19T12:10:41;8.10;99.90
10278;DHT22;5184;51.376;7.148;2022-12-19T12:13:14;8.00;99.90
10278;DHT22;5184;51.376;7.148;2022-12-19T12:15:44;8.00;99.90
10278;DHT22;5184;51.376;7.148;2022-12-19T12:21:03;8.00;99.90
10278;DHT22;5184;51.376;7.148;2022-12-19T12:23:35;8.00;1.00
10278;DHT22;5184;51.376;7.148;2022-12-19T12:26:09;8.00;1.00
10278;DHT22;5184;51.376;7.148;2022-12-19T12:28:59;7.90;1.00
10278;DHT22;5184;51.376;7.148;2022-12-19T12:31:34;8.00;1.00
10278;DHT22;5184;51.376;7.148;2022-12-19T12:34:18;8.00;1.00
10278;DHT22;5184;51.376;7.148;2022-12-19T12:36:44;8.10;1.00
10278;DHT22;5184;51.376;7.148;2022-12-19T12:39:16;8.10;99.90
10278;DHT22;5184;51.376;7.148;2022-12-19T12:41:43;8.10;99.90
10278;DHT22;5184;51.376;7.148;2022-12-19T12:44:20;8.10;99.90
10278;DHT22;5184;51.376;7.148;2022-12-19T12:46:42;8.10;23.90
10278;DHT22;5184;51.376;7.148;2022-12-19T12:49:32;8.20;35.20
10278;DHT22;5184;51.376;7.148;2022-12-19T12:51:45;8.20;76.50
10278;DHT22;5184;51.376;7.148;2022-12-19T12:54:13;8.30;1.00
10278;DHT22;5184;51.376;7.148;2022-12-19T12:56:40;8.30;1.00
10278;DHT22;5184;51.376;7.148;2022-12-19T12:59:24;8.40;1.00
10278;DHT22;5184;51.376;7.148;2022-12-19T13:01:54;8.40;1.00
10278;DHT22;5184;51.376;7.148;2022-12-19T13:04:25;8.40;1.00
10278;DHT22;5184;51.376;7.148;2022-12-19T13:09:37;8.50;99.90
10278;DHT22;5184;51.376;7.148;2022-12-19T13:12:13;8.60;99.90
10278;DHT22;5184;51.376;7.148;2022-12-19T13:14:44;8.60;99.90
10278;DHT22;5184;51.376;7.148;2022-12-19T13:17:17;8.60;99.90
10278;DHT22;5184;51.376;7.148;2022-12-19T13:22:15;8.60;99.90
10278;DHT22;5184;51.376;7.148;2022-12-19T13:24:42;8.70;1.10
10278;DHT22;5184;51.376;7.148;2022-12-19T13:27:46;8.60;43.60
10278;DHT22;5184;51.376;7.148;2022-12-19T13:30:14;8.60;1.00
10278;DHT22;5184;51.376;7.148;2022-12-19T13:35:37;8.60;1.00
10278;DHT22;5184;51.376;7.148;2022-12-19T13:40:53;8.60;1.00
10278;DHT22;5184;51.376;7.148;2022-12-19T13:43:18;8.60;1.00
10278;DHT22;5184;51.376;7.148;2022-12-19T13:45:52;8.60;1.00
10278;DHT22;5184;51.376;7.148;2022-12-19T13:48:21;8.50;1.00
10278;DHT22;5184;51.376;7.148;2022-12-19T13:50:45;8.50;1.00
10278;DHT22;5184;51.376;7.148;2022-12-19T13:53:15;8.50;1.00
10278;DHT22;5184;51.376;7.148;2022-12-19T13:55:42;8.50;1.00
10278;DHT22;5184;51.376;7.148;2022-12-19T13:58:32;8.50;1.00
10278;DHT22;5184;51.376;7.148;2022-12-19T14:01:01;8.40;1.00
10278;DHT22;5184;51.376;7.148;2022-12-19T14:03:32;8.40;1.00
10278;DHT22;5184;51.376;7.148;2022-12-19T14:06:07;8.40;1.00
10278;DHT22;5184;51.376;7.148;2022-12-19T14:08:25;8.40;1.00
10278;DHT22;5184;51.376;7.148;2022-12-19T14:10:52;8.40;1.00
10278;DHT22;5184;51.376;7.148;2022-12-19T14:13:19;8.40;1.00
10278;DHT22;5184;51.376;7.148;2022-12-19T14:15:50;8.40;1.00
10278;DHT22;5184;51.376;7.148;2022-12-19T14:18:21;8.40;1.00
10278;DHT22;5184;51.376;7.148;2022-12-19T14:20:47;8.50;1.00
10278;DHT22;5184;51.376;7.148;2022-12-19T14:23:13;8.50;1.00
10278;DHT22;5184;51.376;7.148;2022-12-19T14:25:51;8.40;1.00
10278;DHT22;5184;51.376;7.148;2022-12-19T14:28:17;8.40;1.00
10278;DHT22;5184;51.376;7.148;2022-12-19T14:30:45;8.40;1.00
10278;DHT22;5184;51.376;7.148;2022-12-19T14:33:12;8.40;1.00
10278;DHT22;5184;51.376;7.148;2022-12-19T14:35:37;8.40;1.00
10278;DHT22;5184;51.376;7.148;2022-12-19T14:38:05;8.30;1.00
10278;DHT22;5184;51.376;7.148;2022-12-19T14:40:30;8.30;1.00
10278;DHT22;5184;51.376;7.148;2022-12-19T14:42:58;8.30;1.00
10278;DHT22;5184;51.376;7.148;2022-12-19T14:45:31;8.30;1.00
10278;DHT22;5184;51.376;7.148;2022-12-19T14:47:57;8.30;1.00
10278;DHT22;5184;51.376;7.148;2022-12-19T14:50:39;8.20;1.00
10278;DHT22;5184;51.376;7.148;2022-12-19T14:53:08;8.20;1.00
10278;DHT22;5184;51.376;7.148;2022-12-19T14:55:34;8.20;1.00
10278;DHT22;5184;51.376;7.148;2022-12-19T14:58:08;8.20;1.00
10278;DHT22;5184;51.376;7.148;2022-12-19T15:00:42;8.20;1.00
10278;DHT22;5184;51.376;7.148;2022-12-19T15:03:11;8.10;1.00
10278;DHT22;5184;51.376;7.148;2022-12-19T15:05:36;8.10;1.00
10278;DHT22;5184;51.376;7.148;2022-12-19T15:08:03;8.10;24.50
10278;DHT22;5184;51.376;7.148;2022-12-19T15:10:31;8.10;29.20
10278;DHT22;5184;51.376;7.148;2022-12-19T15:12:59;8.10;61.30
10278;DHT22;5184;51.376;7.148;2022-12-19T15:15:38;8.00;50.60
10278;DHT22;5184;51.376;7.148;2022-12-19T15:18:12;8.10;87.40
10278;DHT22;5184;51.376;7.148;2022-12-19T15:20:30;8.10;48.70
10278;DHT22;5184;51.376;7.148;2022-12-19T15:22:58;8.10;40.40
10278;DHT22;5184;51.376;7.148;2022-12-19T15:25:25;8.10;91.70
10278;DHT22;5184;51.376;7.148;2022-12-19T15:27:52;8.10;99.90
10278;DHT22;5184;51.376;7.148;2022-12-19T15:30:20;8.10;66.50
10278;DHT22;5184;51.376;7.148;2022-12-19T15:32:47;8.10;1.00
10278;DHT22;5184;51.376;7.148;2022-12-19T15:35:15;8.10;21.10
10278;DHT22;5184;51.376;7.148;2022-12-19T15:37:43;8.10;16.10
10278;DHT22;5184;51.376;7.148;2022-12-19T15:40:13;8.20;1.00
10278;DHT22;5184;51.376;7.148;2022-12-19T15:42:42;8.10;1.00
10278;DHT22;5184;51.376;7.148;2022-12-19T15:45:14;8.20;1.70
10278;DHT22;5184;51.376;7.148;2022-12-19T15:47:41;8.20;25.90
10278;DHT22;5184;51.376;7.148;2022-12-19T15:50:14;8.10;19.20
10278;DHT22;5184;51.376;7.148;2022-12-19T15:52:40;8.20;74.20
10278;DHT22;5184;51.376;7.148;2022-12-19T15:55:11;8.20;72.90
10278;DHT22;5184;51.376;7.148;2022-12-19T15:57:35;8.20;51.70
10278;DHT22;5184;51.376;7.148;2022-12-19T16:00:03;8.20;94.80
10278;DHT22;5184;51.376;7.148;2022-12-19T16:02:29;8.20;92.20
10278;DHT22;5184;51.376;7.148;2022-12-19T16:04:56;8.30;69.90
10278;DHT22;5184;51.376;7.148;2022-12-19T16:07:23;8.30;60.70
10278;DHT22;5184;51.376;7.148;2022-12-19T16:09:50;8.30;39.10
10278;DHT22;5184;51.376;7.148;2022-12-19T16:12:19;8.30;32.30
10278;DHT22;5184;51.376;7.148;2022-12-19T16:14:46;8.30;23.70
10278;DHT22;5184;51.376;7.148;2022-12-19T16:17:20;8.40;23.90
10278;DHT22;5184;51.376;7.148;2022-12-19T16:19:40;8.30;17.60
10278;DHT22;5184;51.376;7.148;2022-12-19T16:22:16;8.40;11.10
10278;DHT22;5184;51.376;7.148;2022-12-19T16:24:42;8.30;96.70
10278;DHT22;5184;51.376;7.148;2022-12-19T16:27:12;8.40;57.20
10278;DHT22;5184;51.376;7.148;2022-12-19T16:29:36;8.40;49.80
10278;DHT22;5184;51.376;7.148;2022-12-19T16:32:02;8.40;87.30
10278;DHT22;5184;51.376;7.148;2022-12-19T16:34:30;8.60;99.90
10278;DHT22;5184;51.376;7.148;2022-12-19T16:36:57;8.70;1.00
10278;DHT22;5184;51.376;7.148;2022-12-19T16:39:24;8.60;23.50
10278;DHT22;5184;51.376;7.148;2022-12-19T16:41:52;8.70;27.60